createdAt,value
2017-12-21T02:18:25.382Z,81.20
2017-12-21T02:21:17.327Z,81.40
2017-12-21T02:26:37.932Z,81.40
2017-12-21T02:29:32.909Z,81.10
2017-12-21T02:32:22.465Z,81.10
2017-12-21T02:35:12.013Z,81.10
2017-12-21T02:38:24.709Z,81.20
2017-12-21T02:57:46.841Z,81.40
2017-12-21T03:00:17.673Z,81.40
2017-12-21T03:02:48.464Z,81.90
2017-12-21T03:05:19.373Z,81.20
2017-12-21T03:07:49.093Z,81.10
2017-12-21T03:10:40.041Z,81.10
2017-12-21T03:13:09.858Z,81.40
2017-12-21T03:15:46.676Z,81.40
2017-12-21T03:18:16.526Z,81.40
2017-12-21T03:20:47.296Z,81.40
2017-12-21T03:23:17.239Z,81.50
2017-12-21T03:25:49.867Z,81.40
2017-12-21T03:28:18.946Z,81.40
2017-12-21T03:30:51.469Z,81.40
2017-12-21T03:33:20.370Z,81.30
2017-12-21T03:35:56.716Z,81.40
2017-12-21T03:38:28.960Z,81.50
2017-12-21T03:40:58.564Z,81.40
2017-12-21T03:43:28.040Z,81.50
2017-12-21T03:45:57.593Z,81.40
2017-12-21T03:48:28.329Z,81.40
2017-12-21T03:50:58.129Z,81.50
2017-12-21T03:53:28.967Z,81.50
2017-12-21T03:55:58.382Z,81.30
2017-12-21T03:58:28.410Z,81.40
2017-12-21T04:00:58.546Z,81.40
2017-12-21T04:03:35.299Z,81.50
2017-12-21T04:06:06.056Z,81.40
2017-12-21T04:08:35.428Z,81.40
2017-12-21T04:11:04.217Z,81.40
2017-12-21T04:13:33.039Z,81.50
2017-12-21T04:16:02.639Z,81.50
2017-12-21T04:18:31.277Z,81.50
2017-12-21T04:21:01.307Z,81.70
2017-12-21T04:23:40.312Z,81.70
2017-12-21T04:26:09.340Z,81.80
2017-12-21T04:28:41.277Z,81.90
2017-12-21T04:31:13.641Z,81.80
2017-12-21T04:33:42.334Z,81.90
2017-12-21T04:36:11.320Z,81.80
2017-12-21T04:38:42.588Z,81.60
2017-12-21T04:41:16.187Z,81.50
2017-12-21T04:43:45.705Z,81.50
2017-12-21T04:46:15.643Z,81.50
2017-12-21T04:48:44.577Z,81.60
2017-12-21T04:51:15.538Z,81.50
2017-12-21T04:53:44.249Z,81.50
2017-12-21T04:56:16.538Z,81.60
2017-12-21T04:58:46.724Z,81.60
2017-12-21T05:01:15.926Z,81.70
2017-12-21T05:03:50.147Z,81.40
2017-12-21T05:06:19.925Z,81.50
2017-12-21T05:08:49.253Z,82.30
2017-12-21T05:11:18.647Z,81.40
2017-12-21T05:13:47.946Z,81.40
2017-12-21T05:16:17.332Z,81.50
2017-12-21T05:18:55.663Z,81.70
2017-12-21T05:21:25.082Z,81.70
2017-12-21T05:23:54.482Z,81.60
2017-12-21T05:26:23.868Z,81.60
2017-12-21T05:28:54.263Z,81.40
2017-12-21T05:31:23.290Z,81.30
2017-12-21T05:33:52.267Z,81.40
2017-12-21T05:43:49.275Z,81.10
2017-12-21T05:46:20.000Z,81.30
2017-12-21T05:48:49.396Z,81.40
2017-12-21T05:51:19.113Z,81.40
2017-12-21T05:57:03.475Z,81.70
2017-12-21T05:59:36.569Z,81.40
2017-12-21T06:02:12.928Z,81.50
2017-12-21T06:04:54.046Z,81.40
2017-12-21T06:07:26.920Z,81.40
2017-12-21T06:10:03.178Z,81.60
2017-12-21T06:12:32.462Z,81.60
2017-12-21T06:15:05.989Z,81.60
2017-12-21T06:21:31.627Z,81.60
2017-12-21T06:24:03.790Z,81.60
2017-12-21T06:26:37.423Z,81.60
2017-12-21T06:29:17.600Z,81.60
2017-12-21T06:31:54.603Z,81.90
2017-12-21T06:34:32.221Z,81.80
2017-12-21T06:37:08.442Z,81.50
2017-12-21T06:39:40.350Z,81.70
2017-12-21T06:42:09.276Z,81.80
2017-12-21T06:44:39.463Z,81.70
2017-12-21T06:47:10.106Z,81.70
2017-12-21T06:50:02.449Z,81.70
2017-12-21T06:52:36.109Z,81.30
2017-12-21T06:55:29.094Z,81.80
2017-12-21T06:58:03.415Z,81.80
2017-12-21T07:00:37.771Z,81.70
2017-12-21T07:04:03.914Z,81.50
2017-12-21T07:06:37.208Z,81.40
2017-12-21T07:09:21.834Z,81.50
2017-12-21T07:12:01.321Z,81.80
2017-12-21T07:14:36.833Z,81.80
2017-12-21T07:23:07.047Z,81.50
2017-12-21T07:25:36.107Z,81.70
2017-12-21T07:28:30.560Z,81.60
2017-12-21T07:31:00.752Z,81.80
2017-12-21T07:33:29.596Z,82.50
2017-12-21T07:35:58.997Z,81.90
2017-12-21T07:38:29.777Z,81.90
2017-12-21T07:41:00.566Z,81.60
2017-12-21T07:43:31.409Z,81.80
2017-12-21T07:46:02.073Z,81.90
2017-12-21T07:48:31.647Z,82.00
2017-12-21T07:51:20.093Z,81.70
2017-12-21T07:53:49.515Z,81.50
2017-12-21T07:56:24.453Z,81.70
2017-12-21T07:58:54.655Z,81.50
2017-12-21T08:01:26.558Z,81.50
2017-12-21T08:03:57.338Z,81.70
2017-12-21T08:06:36.098Z,81.40
2017-12-21T08:09:27.683Z,81.50
2017-12-21T08:12:22.863Z,81.10
2017-12-21T08:15:05.868Z,81.10
2017-12-21T08:23:41.979Z,81.30
2017-12-21T08:26:47.045Z,81.10
2017-12-21T08:29:38.070Z,81.10
2017-12-21T08:32:07.701Z,81.10
2017-12-21T08:34:35.746Z,81.10
2017-12-21T08:37:07.453Z,81.00
2017-12-21T08:39:37.143Z,80.80
2017-12-21T08:42:05.108Z,80.90
2017-12-21T08:44:33.323Z,81.20
2017-12-21T08:47:01.288Z,80.50
2017-12-21T08:49:30.311Z,80.60
2017-12-21T08:51:58.349Z,80.60
2017-12-21T08:54:27.183Z,80.70
2017-12-21T08:56:55.366Z,80.70
2017-12-21T08:59:23.381Z,80.80
2017-12-21T09:01:51.581Z,80.90
2017-12-21T09:04:19.964Z,80.70
2017-12-21T09:06:48.686Z,80.90
2017-12-21T09:09:17.705Z,80.90
2017-12-21T09:11:50.102Z,80.70
2017-12-21T09:14:18.947Z,81.40
2017-12-21T09:16:47.680Z,80.80
2017-12-21T09:19:15.876Z,80.60
2017-12-21T09:21:44.642Z,80.70
2017-12-21T09:24:12.791Z,80.50
2017-12-21T09:26:42.668Z,80.60
2017-12-21T09:29:10.939Z,80.30
2017-12-21T09:31:39.398Z,80.40
2017-12-21T09:34:07.575Z,80.60
2017-12-21T09:36:41.072Z,80.70
2017-12-21T09:39:09.821Z,80.50
2017-12-21T09:41:37.928Z,80.40
2017-12-21T09:44:06.439Z,80.50
2017-12-21T09:46:34.844Z,80.40
2017-12-21T09:49:05.459Z,80.30
2017-12-21T09:51:51.062Z,80.20
2017-12-21T09:54:19.043Z,80.30
2017-12-21T09:56:49.537Z,80.20
2017-12-21T09:59:19.007Z,80.20
2017-12-21T10:01:47.004Z,80.30
2017-12-21T10:04:15.337Z,80.40
2017-12-21T10:06:43.812Z,80.40
2017-12-21T10:09:11.997Z,80.60
2017-12-21T10:11:49.094Z,80.60
2017-12-21T10:14:18.272Z,80.30
2017-12-21T10:16:53.530Z,80.50
2017-12-21T10:19:23.287Z,80.40
2017-12-21T10:21:51.376Z,80.50
2017-12-21T10:24:19.581Z,80.70
2017-12-21T10:26:56.598Z,80.50
2017-12-21T10:29:25.639Z,81.00
2017-12-21T10:31:54.133Z,81.00
2017-12-21T10:34:22.239Z,80.80
2017-12-21T10:36:53.291Z,81.00
2017-12-21T10:39:21.328Z,81.20
2017-12-21T10:41:54.113Z,81.00
2017-12-21T10:44:22.156Z,81.00
2017-12-21T10:46:55.085Z,81.10
2017-12-21T10:49:24.743Z,81.40
2017-12-21T10:51:53.091Z,81.30
2017-12-21T10:54:21.911Z,81.10
2017-12-21T10:56:58.857Z,81.20
2017-12-21T10:59:28.683Z,81.30
2017-12-21T11:02:08.076Z,81.40
2017-12-21T11:04:37.653Z,81.30
2017-12-21T11:07:15.510Z,81.30
2017-12-21T11:09:45.617Z,81.30
2017-12-21T11:12:15.878Z,81.20
2017-12-21T11:14:44.430Z,81.40
2017-12-21T11:17:15.770Z,81.40
2017-12-21T11:19:44.091Z,81.40
2017-12-21T11:22:16.810Z,81.20
2017-12-21T11:24:45.629Z,81.10
2017-12-21T11:27:22.677Z,81.30
2017-12-21T11:29:52.424Z,81.40
2017-12-21T11:32:21.234Z,81.30
2017-12-21T11:34:49.584Z,81.50
2017-12-21T11:37:27.497Z,81.60
2017-12-21T11:39:57.173Z,81.80
2017-12-21T11:42:27.088Z,81.80
2017-12-21T11:44:57.987Z,82.00
2017-12-21T11:47:27.945Z,81.90
2017-12-21T11:49:57.540Z,81.90
2017-12-21T11:52:29.254Z,81.90
2017-12-21T11:55:01.640Z,81.70
2017-12-21T11:57:33.672Z,81.20
2017-12-21T12:00:01.906Z,81.20
2017-12-21T12:02:31.899Z,81.00
2017-12-21T12:05:00.992Z,80.90
2017-12-21T12:07:31.857Z,81.10
2017-12-21T12:10:01.320Z,81.10
2017-12-21T12:12:31.988Z,81.00
2017-12-21T12:15:00.685Z,81.00
2017-12-21T12:17:34.047Z,81.10
2017-12-21T12:20:02.760Z,81.10
2017-12-21T12:22:35.685Z,81.10
2017-12-21T12:25:04.823Z,81.30
2017-12-21T12:27:35.226Z,81.30
2017-12-21T12:30:10.520Z,81.10
2017-12-21T12:32:39.275Z,81.10
2017-12-21T12:35:10.471Z,81.00
2017-12-21T12:37:40.352Z,81.00
2017-12-21T12:40:09.274Z,80.80
2017-12-21T12:42:42.423Z,80.80
2017-12-21T12:45:11.983Z,80.50
2017-12-21T12:47:46.589Z,80.30
2017-12-21T12:50:15.610Z,80.40
2017-12-21T12:52:44.538Z,80.20
2017-12-21T12:55:15.462Z,79.80
2017-12-21T12:57:53.823Z,79.80
2017-12-21T13:00:22.694Z,79.80
2017-12-21T13:02:51.569Z,80.00
2017-12-21T13:05:20.675Z,79.40
2017-12-21T13:07:49.476Z,78.90
2017-12-21T13:13:04.119Z,79.80
2017-12-21T13:15:35.587Z,79.80
2017-12-21T13:18:23.882Z,80.00
2017-12-21T13:20:53.455Z,80.10
2017-12-21T13:23:25.617Z,80.30
2017-12-21T13:25:55.797Z,80.30
2017-12-21T13:28:30.343Z,80.20
2017-12-21T13:31:01.086Z,80.50
2017-12-21T13:33:30.612Z,80.50
2017-12-21T13:35:59.775Z,80.40
2017-12-21T13:38:30.561Z,80.10
2017-12-21T13:41:02.781Z,79.70
2017-12-21T13:43:31.549Z,80.40
2017-12-21T13:46:01.376Z,79.60
2017-12-21T13:48:31.826Z,79.50
2017-12-21T13:51:01.426Z,79.80
2017-12-21T13:53:29.357Z,79.90
2017-12-21T13:55:58.588Z,79.70
2017-12-21T13:58:27.425Z,79.70
2017-12-21T14:00:56.136Z,79.90
2017-12-21T14:03:25.275Z,79.80
2017-12-21T14:05:55.590Z,79.80
2017-12-21T14:08:24.775Z,80.00
2017-12-21T14:11:02.282Z,80.00
2017-12-21T14:13:35.406Z,79.90
2017-12-21T14:16:06.727Z,79.80
2017-12-21T14:18:35.951Z,80.00
2017-12-21T14:21:05.352Z,79.80
2017-12-21T14:25:13.415Z,79.60
2017-12-21T14:31:20.599Z,79.60
2017-12-21T14:33:49.983Z,79.60
2017-12-21T14:36:18.744Z,79.70
2017-12-21T14:39:03.812Z,79.80
2017-12-21T14:41:36.285Z,80.20
2017-12-21T14:44:06.694Z,79.90
2017-12-21T14:46:40.267Z,80.00
2017-12-21T14:49:14.017Z,79.80
2017-12-21T14:51:43.823Z,80.10
2017-12-21T14:54:15.647Z,80.00
2017-12-21T14:56:46.410Z,80.30
2017-12-21T14:59:14.438Z,80.50
2017-12-21T15:01:43.481Z,80.40
2017-12-21T15:04:14.129Z,80.60
2017-12-21T15:06:43.462Z,80.60
2017-12-21T15:09:11.593Z,80.70
2017-12-21T15:11:47.014Z,80.60
2017-12-21T15:14:18.384Z,80.90
2017-12-21T15:17:05.947Z,80.90
2017-12-21T15:19:35.950Z,80.80
2017-12-21T15:22:04.773Z,80.80
2017-12-21T15:24:39.525Z,80.70
2017-12-21T15:27:07.711Z,80.70
2017-12-21T15:29:46.535Z,80.70
2017-12-21T15:32:15.076Z,80.60
2017-12-21T15:34:45.835Z,81.30
2017-12-21T15:37:23.571Z,80.70
2017-12-21T15:40:06.463Z,81.00
2017-12-21T15:42:44.967Z,80.80
2017-12-21T15:45:14.109Z,80.80
2017-12-21T15:47:56.443Z,80.70
2017-12-21T15:50:28.429Z,80.80
2017-12-21T15:52:56.717Z,80.80
2017-12-21T15:55:28.742Z,81.00
2017-12-21T15:58:00.096Z,80.80
2017-12-21T16:00:30.188Z,80.80
2017-12-21T16:02:59.587Z,80.70
2017-12-21T16:05:44.861Z,80.50
2017-12-21T16:08:13.841Z,81.20
2017-12-21T16:10:45.250Z,80.70
2017-12-21T16:13:14.446Z,80.70
2017-12-21T16:15:43.899Z,80.30
2017-12-21T16:18:15.838Z,80.20
2017-12-21T16:20:44.215Z,80.20
2017-12-21T16:23:15.216Z,80.20
2017-12-21T16:25:46.065Z,80.40
2017-12-21T16:28:19.145Z,80.40
2017-12-21T16:30:47.615Z,80.30
2017-12-21T16:33:17.411Z,80.50
2017-12-21T16:35:47.404Z,80.50
2017-12-21T16:38:26.322Z,80.80
2017-12-21T16:41:01.802Z,80.50
2017-12-21T16:43:35.198Z,80.40
2017-12-21T16:46:04.368Z,80.40
2017-12-21T16:48:40.127Z,80.90
2017-12-21T16:51:09.749Z,80.70
2017-12-21T16:53:40.808Z,80.60
2017-12-21T16:56:11.238Z,80.60
2017-12-21T16:58:41.535Z,80.40
2017-12-21T17:01:10.674Z,80.30
2017-12-21T17:03:39.567Z,80.50
2017-12-21T17:06:09.050Z,80.80
2017-12-21T17:08:43.059Z,80.70
2017-12-21T17:11:16.048Z,81.30
2017-12-21T17:13:54.187Z,80.70
2017-12-21T17:16:22.513Z,80.70
2017-12-21T17:18:51.303Z,80.70
2017-12-21T17:24:36.175Z,80.40
2017-12-21T17:27:04.558Z,80.50
2017-12-21T17:29:53.531Z,80.40
2017-12-21T17:32:50.103Z,80.40
2017-12-21T17:35:24.809Z,80.40
2017-12-21T17:37:55.695Z,80.40
2017-12-21T17:40:24.415Z,80.50
2017-12-21T17:42:58.777Z,80.50
2017-12-21T17:45:29.433Z,80.60
2017-12-21T17:48:03.269Z,80.60
2017-12-21T17:50:34.628Z,80.50
2017-12-21T17:53:11.291Z,80.50
2017-12-21T17:55:42.288Z,80.60
2017-12-21T17:58:11.961Z,80.40
2017-12-21T18:00:42.006Z,80.40
2017-12-21T18:03:14.704Z,80.70
2017-12-21T18:08:26.447Z,80.30
2017-12-21T18:11:08.246Z,80.20
2017-12-21T18:13:46.230Z,80.30
2017-12-21T18:16:25.366Z,80.20
2017-12-21T18:19:00.013Z,80.30
2017-12-21T18:21:30.433Z,80.50
2017-12-21T18:24:02.797Z,80.30
2017-12-21T18:26:33.136Z,80.40
2017-12-21T18:29:02.019Z,80.20
2017-12-21T18:31:52.768Z,80.30
2017-12-21T18:34:27.033Z,80.20
2017-12-21T18:37:02.960Z,80.20
2017-12-21T18:39:32.082Z,80.20
2017-12-21T18:42:03.961Z,80.30
2017-12-21T18:45:18.352Z,80.40
2017-12-21T18:47:49.039Z,80.30
2017-12-21T18:50:28.371Z,80.50
2017-12-21T18:53:01.705Z,80.50
2017-12-21T18:55:32.511Z,80.60
2017-12-21T18:58:03.062Z,80.50
2017-12-21T19:00:32.403Z,80.30
2017-12-21T19:03:02.662Z,80.50
2017-12-21T19:05:32.746Z,80.50
2017-12-21T19:08:03.182Z,80.40
2017-12-21T19:10:35.466Z,80.40
2017-12-21T19:15:47.793Z,80.70
2017-12-21T19:18:17.697Z,80.60
2017-12-21T19:20:46.371Z,80.40
2017-12-21T19:23:15.583Z,80.50
2017-12-21T19:25:44.663Z,80.50
2017-12-21T19:28:17.956Z,80.50
2017-12-21T19:30:49.722Z,80.70
2017-12-21T19:33:18.421Z,80.70
2017-12-21T19:35:48.393Z,80.60
2017-12-21T19:38:19.213Z,80.80
2017-12-21T19:41:14.552Z,80.70
2017-12-21T19:43:57.761Z,80.70
2017-12-21T19:46:32.409Z,80.50
2017-12-21T19:49:00.369Z,80.60
2017-12-21T19:51:30.993Z,80.70
2017-12-21T19:54:01.421Z,80.60
2017-12-21T19:56:31.319Z,80.60
2017-12-21T19:59:00.735Z,80.70
2017-12-21T20:01:30.514Z,80.60
2017-12-21T20:04:03.791Z,80.60
2017-12-21T20:06:33.520Z,80.70
2017-12-21T20:09:05.320Z,80.70
2017-12-21T20:11:34.592Z,80.70
2017-12-21T20:14:03.896Z,81.20
2017-12-21T20:17:09.049Z,80.70
2017-12-21T20:19:37.636Z,80.60
2017-12-21T20:22:09.886Z,80.60
2017-12-21T20:24:39.731Z,80.80
2017-12-21T20:27:09.670Z,80.90
2017-12-21T20:29:40.309Z,80.90
2017-12-21T20:32:10.247Z,80.90
2017-12-21T20:34:44.751Z,81.00
2017-12-21T20:37:16.652Z,80.90
2017-12-21T20:40:00.541Z,80.70
2017-12-21T20:45:43.036Z,80.80
2017-12-21T20:48:12.783Z,80.70
2017-12-21T20:50:42.778Z,80.70
2017-12-21T20:53:20.365Z,80.50
2017-12-21T20:55:52.854Z,80.50
2017-12-21T20:58:21.790Z,80.60
2017-12-21T21:00:51.022Z,80.60
2017-12-21T21:03:19.510Z,80.60
2017-12-21T21:05:47.707Z,80.60
2017-12-21T21:08:16.517Z,80.50
2017-12-21T21:10:56.650Z,80.50
2017-12-21T21:13:31.805Z,80.20
2017-12-21T21:16:00.611Z,80.40
2017-12-21T21:18:31.266Z,80.70
2017-12-21T21:20:59.975Z,80.70
2017-12-21T21:23:40.310Z,80.80
2017-12-21T21:26:10.178Z,81.10
2017-12-21T21:28:41.407Z,81.10
2017-12-21T21:31:10.130Z,81.00
2017-12-21T21:36:18.150Z,80.70
2017-12-21T21:38:47.882Z,80.40
2017-12-21T21:41:16.325Z,80.30
2017-12-21T21:43:44.406Z,80.40
2017-12-21T21:46:13.677Z,80.50
2017-12-21T21:48:41.933Z,80.70
2017-12-21T21:51:10.221Z,80.70
2017-12-21T21:53:38.512Z,80.70
2017-12-21T21:56:07.821Z,80.70
2017-12-21T21:58:36.050Z,80.70
2017-12-21T22:01:04.181Z,80.70
2017-12-21T22:04:05.618Z,80.50
2017-12-21T22:06:33.591Z,80.30
2017-12-21T22:09:13.992Z,80.50
2017-12-21T22:11:43.606Z,80.40
2017-12-21T22:14:11.762Z,80.40
2017-12-21T22:16:42.932Z,80.50
2017-12-21T22:19:11.079Z,80.60
2017-12-21T22:24:00.736Z,80.60
2017-12-21T22:26:42.386Z,81.50
2017-12-21T22:29:10.908Z,81.00
2017-12-21T22:31:38.890Z,81.10
2017-12-21T22:34:07.378Z,81.20
2017-12-21T22:36:35.869Z,81.20
2017-12-21T22:39:07.581Z,81.30
2017-12-21T22:41:36.418Z,81.30
2017-12-21T22:44:05.301Z,81.40
2017-12-21T22:46:33.225Z,82.00
2017-12-21T22:49:02.490Z,81.30
2017-12-21T22:51:31.900Z,81.20
2017-12-21T22:54:01.356Z,81.20
2017-12-21T22:56:30.084Z,81.20
2017-12-21T22:58:59.466Z,81.10
2017-12-21T23:01:29.272Z,81.80
2017-12-21T23:03:57.981Z,81.20
2017-12-21T23:06:26.668Z,81.00
2017-12-21T23:08:55.485Z,81.00
2017-12-21T23:11:23.454Z,81.00
2017-12-21T23:13:55.311Z,81.00
2017-12-21T23:16:24.369Z,80.90
2017-12-21T23:18:52.803Z,80.90
2017-12-21T23:21:21.914Z,80.90
2017-12-21T23:23:49.929Z,80.80
2017-12-21T23:26:18.818Z,80.70
2017-12-21T23:28:48.002Z,80.80
2017-12-21T23:31:16.627Z,80.50
2017-12-21T23:33:45.722Z,80.70
2017-12-21T23:36:14.046Z,80.80
2017-12-21T23:38:43.271Z,80.90
2017-12-21T23:41:16.888Z,80.90
2017-12-21T23:43:47.555Z,81.00
2017-12-21T23:47:06.137Z,81.00
2017-12-21T23:50:17.492Z,81.00
2017-12-21T23:52:45.778Z,81.00
2017-12-21T23:55:15.541Z,81.10
2017-12-21T23:57:46.302Z,81.00
